Time;durP1;ratioP1;P1;durP2;ratioP2;P2;SDS_P1;SDS_P2;PMS_P1;PMS_P2;Temp;Humidity;BMP_temperature;BMP_pressure;BME280_temperature;BME280_humidity;BME280_pressure;Samples;Min_cycle;Max_cycle;Signal;HPM_P1;HPM_P2
2021/05/26 00:03:04;;;;;;;0.63;0.30;;;20.50;51.60;;;;;;20812815;28;20578;-21
2021/05/26 00:13:05;;;;;;;1.03;0.50;;;20.50;51.60;;;;;;20826332;28;20494;-21
2021/05/26 00:23:05;;;;;;;1.70;0.50;;;20.40;51.60;;;;;;20821204;28;20463;-21
2021/05/26 00:33:06;;;;;;;1.80;0.50;;;20.40;51.70;;;;;;20819715;28;20034;-21
2021/05/26 00:43:07;;;;;;;1.30;0.40;;;20.30;51.80;;;;;;20859388;22;20084;-21
2021/05/26 00:53:12;;;;;;;1.42;0.57;;;20.40;51.90;;;;;;20874566;28;20475;-22
2021/05/26 01:03:13;;;;;;;2.05;0.40;;;20.30;51.90;;;;;;20900929;28;20494;-21
2021/05/26 01:13:14;;;;;;;0.55;0.40;;;20.30;52.00;;;;;;20916922;28;20105;-22
2021/05/26 01:23:18;;;;;;;1.40;0.40;;;20.20;52.00;;;;;;20897298;28;20033;-20
2021/05/26 01:33:19;;;;;;;3.55;0.63;;;20.30;51.90;;;;;;20914008;28;20025;-21
2021/05/26 01:43:23;;;;;;;1.40;0.40;;;20.20;51.90;;;;;;20917814;28;20028;-23
2021/05/26 01:53:26;;;;;;;1.60;0.32;;;20.20;52.40;;;;;;20910202;28;20072;-21
2021/05/26 02:03:27;;;;;;;2.97;0.40;;;20.20;51.90;;;;;;20903774;28;20108;-21
2021/05/26 02:13:27;;;;;;;3.78;1.05;;;20.20;51.90;;;;;;20889823;28;20075;-22
2021/05/26 02:23:28;;;;;;;2.17;0.43;;;20.20;51.90;;;;;;20902235;28;20040;-21
2021/05/26 02:33:29;;;;;;;0.85;0.40;;;20.20;51.90;;;;;;20900797;28;20502;-23
2021/05/26 02:43:29;;;;;;;1.02;0.47;;;20.10;51.80;;;;;;20855615;28;20025;-21
2021/05/26 02:53:30;;;;;;;0.50;0.25;;;20.10;51.80;;;;;;20877862;28;20078;-21
2021/05/26 03:03:30;;;;;;;1.67;0.93;;;20.10;51.80;;;;;;20858237;28;20439;-21
2021/05/26 03:13:32;;;;;;;0.50;0.33;;;20.10;51.80;;;;;;20877924;28;20032;-21
2021/05/26 03:23:32;;;;;;;2.50;0.50;;;20.10;51.80;;;;;;20878920;28;20605;-21
2021/05/26 03:33:33;;;;;;;1.20;0.50;;;20.10;51.80;;;;;;20869672;28;20499;-23
2021/05/26 03:43:34;;;;;;;2.63;0.50;;;20.00;51.80;;;;;;20870574;28;20032;-21
2021/05/26 03:53:37;;;;;;;0.60;0.40;;;20.00;51.80;;;;;;20878919;28;20037;-22
2021/05/26 04:03:38;;;;;;;1.13;0.57;;;20.00;51.80;;;;;;20875079;28;20029;-22
2021/05/26 04:13:38;;;;;;;2.17;0.60;;;20.00;51.80;;;;;;20875306;28;20040;-23
2021/05/26 04:23:39;;;;;;;1.50;0.50;;;20.10;51.50;;;;;;20874016;28;20036;-22
2021/05/26 04:33:40;;;;;;;1.23;0.40;;;20.60;50.60;;;;;;20851229;28;20090;-22
2021/05/26 04:43:41;;;;;;;0.45;0.20;;;21.00;49.90;;;;;;20853073;28;20052;-22
2021/05/26 04:53:41;;;;;;;1.80;0.43;;;21.10;50.00;;;;;;20848802;28;20041;-22
2021/05/26 05:03:42;;;;;;;0.98;0.60;;;20.90;50.20;;;;;;20824280;28;20028;-22
2021/05/26 05:13:43;;;;;;;1.40;0.63;;;20.90;50.40;;;;;;20848549;28;20037;-22
2021/05/26 05:23:43;;;;;;;0.73;0.40;;;20.80;50.80;;;;;;20814406;28;20033;-21
2021/05/26 05:33:44;;;;;;;6.97;0.77;;;20.80;50.60;;;;;;20856888;28;20028;-22
2021/05/26 05:43:44;;;;;;;7.60;1.65;;;20.80;50.90;;;;;;20913047;28;20140;-22
2021/05/26 05:53:45;;;;;;;6.22;1.38;;;20.80;51.30;;;;;;20913342;28;20021;-21
2021/05/26 06:03:45;;;;;;;13.20;2.05;;;20.70;51.50;;;;;;20912630;28;20017;-21
2021/05/26 06:13:48;;;;;;;10.32;2.38;;;20.80;51.30;;;;;;20901242;28;20074;-21
2021/05/26 06:23:49;;;;;;;9.20;2.05;;;20.70;51.20;;;;;;20911247;28;20063;-21
2021/05/26 06:33:49;;;;;;;10.02;2.10;;;20.60;51.50;;;;;;20910051;28;20033;-21
2021/05/26 06:43:50;;;;;;;6.40;2.38;;;20.50;51.50;;;;;;20923096;22;20049;-20
2021/05/26 06:53:50;;;;;;;11.88;2.45;;;20.30;51.60;;;;;;20774488;28;20080;-22
2021/05/26 07:03:51;;;;;;;25.67;4.20;;;20.50;52.10;;;;;;20755864;28;20091;-21
2021/05/26 07:13:52;;;;;;;50.30;5.63;;;20.40;52.50;;;;;;20744235;28;20022;-22
2021/05/26 07:23:54;;;;;;;21.90;4.22;;;20.50;53.20;;;;;;20754713;28;20037;-22
2021/05/26 07:33:55;;;;;;;25.27;3.97;;;20.30;53.30;;;;;;20750585;28;20029;-21
2021/05/26 07:43:55;;;;;;;23.17;5.07;;;20.40;53.70;;;;;;20760855;28;20092;-22
2021/05/26 07:53:56;;;;;;;22.20;4.13;;;20.30;53.60;;;;;;20751152;28;20480;-21
2021/05/26 08:03:57;;;;;;;15.13;3.35;;;20.30;53.70;;;;;;20738776;28;20049;-20
2021/05/26 08:13:58;;;;;;;8.13;3.42;;;20.30;53.80;;;;;;20737008;28;20108;-21
2021/05/26 08:23:58;;;;;;;12.25;2.88;;;20.30;54.30;;;;;;20738022;28;20061;-22
2021/05/26 08:33:59;;;;;;;14.95;3.60;;;20.30;54.60;;;;;;20737497;28;20480;-22
2021/05/26 08:43:59;;;;;;;17.02;3.45;;;20.30;55.10;;;;;;20739851;28;20029;-22
2021/05/26 08:54:00;;;;;;;8.90;3.80;;;20.30;55.60;;;;;;20738332;28;20046;-22
2021/05/26 09:04:25;;;;;;;14.40;3.97;;;20.30;55.20;;;;;;20743627;28;20022;-22
2021/05/26 09:14:36;;;;;;;9.70;3.08;;;20.30;55.00;;;;;;20743202;28;20527;-22
2021/05/26 09:24:37;;;;;;;6.55;2.50;;;20.30;55.50;;;;;;20764375;28;20022;-22
2021/05/26 09:34:40;;;;;;;9.20;2.90;;;20.30;55.50;;;;;;20762371;28;20155;-22
2021/05/26 09:45:05;;;;;;;10.85;3.08;;;20.40;55.60;;;;;;20779556;28;20040;-21
2021/05/26 09:55:28;;;;;;;15.65;4.40;;;20.30;55.00;;;;;;20784121;28;20361;-21
2021/05/26 10:05:29;;;;;;;16.75;4.35;;;20.30;55.50;;;;;;20762529;28;20034;-27
2021/05/26 10:15:31;;;;;;;9.90;4.63;;;20.40;55.20;;;;;;20775761;28;20077;-21
2021/05/26 10:25:32;;;;;;;12.88;3.60;;;20.30;55.30;;;;;;20755983;28;20988;-21
2021/05/26 10:35:57;;;;;;;10.15;4.22;;;20.30;56.70;;;;;;20744178;28;20038;-21
2021/05/26 10:46:00;;;;;;;14.85;5.20;;;20.20;57.10;;;;;;20771532;28;20095;-21
2021/05/26 10:56:00;;;;;;;10.40;4.03;;;20.20;56.50;;;;;;20771303;28;20487;-21
2021/05/26 11:06:05;;;;;;;7.37;3.47;;;20.30;56.40;;;;;;20765877;28;20439;-21
2021/05/26 11:16:06;;;;;;;7.57;3.35;;;20.30;56.40;;;;;;20756120;28;20515;-21
2021/05/26 11:26:06;;;;;;;7.15;3.03;;;20.30;56.90;;;;;;20761874;28;20042;-21
2021/05/26 11:36:09;;;;;;;8.80;2.88;;;20.20;56.90;;;;;;20742759;28;20104;-21
2021/05/26 11:46:10;;;;;;;7.85;2.83;;;20.20;56.50;;;;;;20742697;28;20483;-21
2021/05/26 11:56:14;;;;;;;7.18;2.72;;;20.20;56.20;;;;;;20746139;28;20030;-21
2021/05/26 12:06:19;;;;;;;5.22;2.75;;;20.20;56.10;;;;;;20748001;28;20424;-21
2021/05/26 12:16:21;;;;;;;5.20;2.03;;;20.20;56.00;;;;;;20739967;28;20022;-21
2021/05/26 12:26:26;;;;;;;5.10;2.30;;;20.10;55.70;;;;;;20738399;28;20030;-21
2021/05/26 12:36:31;;;;;;;7.57;2.72;;;20.10;55.70;;;;;;20739399;28;20104;-21
2021/05/26 12:46:36;;;;;;;9.18;2.72;;;20.20;56.70;;;;;;20756622;28;20473;-21
2021/05/26 12:56:37;;;;;;;9.60;2.38;;;20.20;57.00;;;;;;20752890;28;20076;-21
2021/05/26 13:06:42;;;;;;;13.40;3.10;;;20.20;56.90;;;;;;20752544;28;20042;-21
2021/05/26 13:16:43;;;;;;;7.45;2.67;;;20.20;56.90;;;;;;20754531;28;20042;-21
2021/05/26 13:26:45;;;;;;;7.43;2.40;;;20.20;56.90;;;;;;20796761;23;20096;-20
2021/05/26 13:36:45;;;;;;;15.95;4.28;;;20.20;57.20;;;;;;20769939;28;20038;-21
2021/05/26 13:46:46;;;;;;;7.97;3.03;;;20.20;57.70;;;;;;20754759;28;20121;-21
2021/05/26 13:56:47;;;;;;;10.23;3.15;;;20.20;57.60;;;;;;20759655;28;20038;-22
2021/05/26 14:06:48;;;;;;;10.73;2.78;;;20.10;56.70;;;;;;20762413;28;20030;-22
2021/05/26 14:16:49;;;;;;;6.00;2.10;;;20.10;56.20;;;;;;20772877;28;20037;-23
2021/05/26 14:26:49;;;;;;;4.30;2.08;;;20.10;56.10;;;;;;20762051;28;20037;-21
2021/05/26 14:36:51;;;;;;;10.68;2.55;;;20.10;55.80;;;;;;20774119;28;20060;-21
2021/05/26 14:46:51;;;;;;;4.90;1.73;;;20.10;55.80;;;;;;20776599;28;20088;-23
2021/05/26 14:56:52;;;;;;;7.25;1.40;;;20.10;55.60;;;;;;20768301;28;20041;-24
2021/05/26 15:06:52;;;;;;;3.80;1.75;;;20.00;55.40;;;;;;20750717;28;20072;-22
2021/05/26 15:16:53;;;;;;;6.82;1.70;;;20.00;55.80;;;;;;20745115;28;20069;-22
2021/05/26 15:26:53;;;;;;;15.07;1.88;;;20.00;56.00;;;;;;20750474;28;20045;-20
2021/05/26 15:36:54;;;;;;;16.88;3.17;;;20.10;57.20;;;;;;20740767;28;20065;-21
2021/05/26 15:46:55;;;;;;;8.75;2.22;;;20.10;57.70;;;;;;20744164;28;20033;-22
2021/05/26 15:56:55;;;;;;;24.60;4.70;;;20.40;57.90;;;;;;20741918;28;20779;-22
2021/05/26 16:06:56;;;;;;;21.30;3.85;;;20.90;57.50;;;;;;20740995;28;20041;-22
2021/05/26 16:16:59;;;;;;;19.90;2.83;;;21.40;57.10;;;;;;20741755;28;20030;-22
2021/05/26 16:27:02;;;;;;;25.40;5.00;;;21.90;56.30;;;;;;20738542;28;20026;-22
2021/05/26 16:37:04;;;;;;;21.15;6.25;;;22.20;56.00;;;;;;20739356;28;20092;-22
2021/05/26 16:47:05;;;;;;;32.83;4.65;;;22.20;57.20;;;;;;20739502;28;20515;-21
2021/05/26 16:57:06;;;;;;;38.57;5.17;;;22.10;57.00;;;;;;20739174;28;20061;-20
2021/05/26 17:07:07;;;;;;;32.33;6.40;;;21.90;57.10;;;;;;20737821;28;20536;-20
2021/05/26 17:17:08;;;;;;;34.25;5.47;;;21.80;57.60;;;;;;20738209;28;20053;-21
2021/05/26 17:27:08;;;;;;;39.67;7.65;;;21.70;57.80;;;;;;20751865;28;20640;-21
2021/05/26 17:37:09;;;;;;;28.35;6.03;;;21.50;59.10;;;;;;20759069;28;20029;-21
2021/05/26 17:47:10;;;;;;;23.90;6.65;;;21.50;59.80;;;;;;20755200;28;20101;-21
2021/05/26 17:57:10;;;;;;;30.70;5.60;;;21.60;59.90;;;;;;20755709;28;20034;-22
2021/05/26 18:07:11;;;;;;;33.13;5.97;;;21.40;59.70;;;;;;20757624;28;20464;-22
2021/05/26 18:17:12;;;;;;;31.65;6.88;;;21.40;60.40;;;;;;20775387;28;20040;-22
2021/05/26 18:27:12;;;;;;;54.08;6.07;;;21.40;60.60;;;;;;20752276;28;20053;-21
2021/05/26 18:37:13;;;;;;;44.97;6.90;;;21.10;61.40;;;;;;20754321;28;20147;-22
2021/05/26 18:47:13;;;;;;;26.85;5.18;;;21.20;60.80;;;;;;20755155;28;20108;-22
2021/05/26 18:57:14;;;;;;;41.28;5.43;;;20.90;60.60;;;;;;20750603;28;20036;-22
2021/05/26 19:07:15;;;;;;;23.02;5.07;;;21.00;60.50;;;;;;20752488;28;20073;-21
2021/05/26 19:17:15;;;;;;;26.37;5.30;;;21.10;60.20;;;;;;20784906;28;20092;-22
2021/05/26 19:27:16;;;;;;;38.05;7.43;;;21.10;60.00;;;;;;20792598;23;20057;-21
2021/05/26 19:37:17;;;;;;;32.63;6.20;;;21.00;60.00;;;;;;20863848;28;20033;-21
2021/05/26 19:47:18;;;;;;;19.35;4.85;;;21.20;59.50;;;;;;20877314;28;20547;-22
2021/05/26 19:57:19;;;;;;;28.45;5.20;;;21.10;60.00;;;;;;20903053;28;20499;-21
2021/05/26 20:07:19;;;;;;;26.83;5.47;;;21.40;60.10;;;;;;20888069;28;20025;-21
2021/05/26 20:17:21;;;;;;;22.35;4.47;;;21.40;60.30;;;;;;20896052;28;20741;-22
2021/05/26 20:27:22;;;;;;;20.40;5.13;;;21.40;60.30;;;;;;20875274;28;20045;-22
2021/05/26 20:37:23;;;;;;;23.58;4.75;;;21.20;61.00;;;;;;20881785;28;20026;-22
2021/05/26 20:47:26;;;;;;;19.85;4.53;;;21.20;61.20;;;;;;20893077;28;20032;-22
2021/05/26 20:57:27;;;;;;;18.17;4.20;;;21.10;61.60;;;;;;20824761;28;20052;-21
2021/05/26 21:07:27;;;;;;;16.85;3.65;;;21.00;61.80;;;;;;20831838;28;20476;-22
2021/05/26 21:17:28;;;;;;;13.00;3.53;;;21.00;61.70;;;;;;20841454;28;20754;-21
2021/05/26 21:27:28;;;;;;;16.92;3.95;;;20.90;62.30;;;;;;20851115;28;20093;-21
2021/05/26 21:37:29;;;;;;;7.03;3.08;;;20.80;62.60;;;;;;20873166;28;20029;-21
2021/05/26 21:47:30;;;;;;;13.35;3.65;;;20.70;62.70;;;;;;20877083;28;20037;-21
2021/05/26 21:57:30;;;;;;;8.65;3.00;;;20.60;62.60;;;;;;20836647;28;20108;-20
2021/05/26 22:07:31;;;;;;;9.85;3.65;;;20.60;62.30;;;;;;20873095;28;20403;-22
2021/05/26 22:17:31;;;;;;;10.30;2.45;;;20.60;62.10;;;;;;20836090;28;20068;-22
2021/05/26 22:27:32;;;;;;;9.60;4.07;;;20.60;61.70;;;;;;20825159;28;20058;-23
2021/05/26 22:37:33;;;;;;;5.33;2.20;;;20.50;61.50;;;;;;20866309;28;20049;-21
2021/05/26 22:47:34;;;;;;;8.40;2.50;;;20.40;61.20;;;;;;20834525;28;20954;-21
2021/05/26 22:57:34;;;;;;;9.35;2.60;;;20.40;61.20;;;;;;20863361;28;20041;-21
2021/05/26 23:07:35;;;;;;;6.78;2.00;;;20.30;61.00;;;;;;20867274;28;20516;-21
2021/05/26 23:17:35;;;;;;;8.68;2.30;;;20.30;60.80;;;;;;20863941;28;20488;-20
2021/05/26 23:27:36;;;;;;;5.05;2.03;;;20.30;60.80;;;;;;20861050;28;20932;-21
2021/05/26 23:37:37;;;;;;;7.88;2.45;;;20.30;60.80;;;;;;20851652;28;20399;-21
2021/05/26 23:47:38;;;;;;;5.45;2.22;;;20.20;60.90;;;;;;20864657;28;20033;-22
2021/05/26 23:57:39;;;;;;;5.53;2.03;;;20.20;61.00;;;;;;20857647;28;20040;-22
